Time;durP1;ratioP1;P1;durP2;ratioP2;P2;SDS_P1;SDS_P2;PMS_P1;PMS_P2;Temp;Humidity;BMP_temperature;BMP_pressure;BME280_temperature;BME280_humidity;BME280_pressure;Samples;Min_cycle;Max_cycle;Signal;HPM_P1;HPM_P2
2024/03/03 00:01:45;;;;;;;;;;;11.60;99.90;;;11.83;56.15;98828.38;4944512;29;19930;-84
2024/03/03 00:04:14;;;;;;;;;;;11.60;99.90;;;11.83;55.61;98828.38;4944486;29;19954;-84
2024/03/03 00:06:45;;;;;;;;;;;11.60;99.90;;;11.84;55.62;98831.88;4960932;28;19926;-84
2024/03/03 00:09:24;;;;;;;;;;;11.70;99.90;;;11.81;55.75;98813.66;4945929;29;19930;-84
2024/03/03 00:12:09;;;;;;;;;;;11.70;99.90;;;11.84;55.60;98813.97;4946952;29;19937;-84
2024/03/03 00:14:36;;;;;;;;;;;11.70;99.90;;;11.83;55.67;98808.88;4963129;28;19930;-84
2024/03/03 00:17:04;;;;;;;;;;;11.70;99.90;;;11.85;55.50;98806.75;4962930;28;19926;-84
2024/03/03 00:19:31;;;;;;;;;;;11.70;99.90;;;11.85;55.11;98804.09;4945230;29;19934;-84
2024/03/03 00:21:59;;;;;;;;;;;11.70;99.90;;;11.84;55.43;98800.59;4945051;29;19986;-84
2024/03/03 00:24:26;;;;;;;;;;;11.70;99.90;;;11.85;55.56;98806.75;4946345;29;19926;-84
2024/03/03 00:26:54;;;;;;;;;;;11.70;99.90;;;11.83;55.29;98796.34;4945760;29;19927;-84
2024/03/03 00:29:22;;;;;;;;;;;11.70;99.90;;;11.85;55.33;98794.19;4945746;29;20395;-84
2024/03/03 00:31:50;;;;;;;;;;;11.70;99.90;;;11.85;55.24;98786.19;4945248;29;19926;-84
2024/03/03 00:34:17;;;;;;;;;;;11.70;99.90;;;11.88;55.40;98781.41;4945324;29;19930;-84
2024/03/03 00:36:44;;;;;;;;;;;11.70;99.90;;;11.88;55.04;98784.88;4944602;29;19931;-84
2024/03/03 00:39:12;;;;;;;;;;;11.70;99.90;;;11.86;55.14;98787.00;4943794;29;20002;-84
2024/03/03 00:41:39;;;;;;;;;;;11.60;99.90;;;11.85;55.43;98783.50;4944420;29;20017;-84
2024/03/03 00:44:06;;;;;;;;;;;11.60;99.90;;;11.85;55.17;98786.19;4962300;29;20312;-84
2024/03/03 00:46:35;;;;;;;;;;;11.60;99.90;;;11.84;55.73;98771.22;4971086;28;19926;-84
2024/03/03 00:49:02;;;;;;;;;;;11.60;99.90;;;11.82;55.67;98776.03;4976861;28;19926;-84
2024/03/03 00:51:33;;;;;;;;;;;11.60;99.90;;;11.81;55.63;98769.06;4944952;29;19927;-84
2024/03/03 00:54:00;;;;;;;;;;;11.60;99.90;;;11.80;55.57;98780.00;4944561;29;19927;-84
2024/03/03 00:56:27;;;;;;;;;;;11.50;99.90;;;11.80;55.37;98766.63;4944886;29;19931;-85
2024/03/03 00:58:54;;;;;;;;;;;11.50;99.90;;;11.80;55.38;98769.31;4945293;29;19977;-84
2024/03/03 01:01:21;;;;;;;;;;;11.50;99.90;;;11.78;55.52;98766.09;4944574;29;19926;-84
2024/03/03 01:03:50;;;;;;;;;;;11.50;99.90;;;11.75;55.01;98762.06;4944946;29;19927;-84
2024/03/03 01:06:18;;;;;;;;;;;11.50;99.90;;;11.74;55.55;98771.16;4944108;29;19954;-84
2024/03/03 01:08:45;;;;;;;;;;;11.50;99.90;;;11.77;55.06;98767.19;4944804;29;20410;-84
2024/03/03 01:11:13;;;;;;;;;;;11.50;99.90;;;11.75;55.44;98770.09;4944571;29;19927;-84
2024/03/03 01:13:40;;;;;;;;;;;11.50;99.90;;;11.75;55.59;98774.63;4961347;28;19926;-85
2024/03/03 01:16:08;;;;;;;;;;;11.50;99.90;;;11.73;55.37;98772.22;4944405;29;19930;-84
2024/03/03 01:18:35;;;;;;;;;;;11.50;99.90;;;11.73;55.49;98768.75;4962385;28;19927;-84
2024/03/03 01:21:05;;;;;;;;;;;11.50;99.90;;;11.71;55.37;98774.38;4945542;28;19996;-84
2024/03/03 01:23:32;;;;;;;;;;;11.50;99.90;;;11.69;55.34;98770.34;4943237;29;19926;-84
2024/03/03 01:26:02;;;;;;;;;;;11.50;99.90;;;11.68;55.40;98764.19;4929319;29;19926;-84
2024/03/03 01:28:31;;;;;;;;;;;11.50;99.90;;;11.66;56.09;98758.28;4962007;28;19926;-84
2024/03/03 01:30:58;;;;;;;;;;;11.50;99.90;;;11.68;55.91;98768.72;4945085;28;20013;-84
2024/03/03 01:33:26;;;;;;;;;;;11.30;99.90;;;11.66;55.80;98760.97;4960956;28;20417;-84
2024/03/03 01:35:55;;;;;;;;;;;11.40;99.90;;;11.65;55.96;98769.25;4944461;29;20017;-84
2024/03/03 01:38:25;;;;;;;;;;;11.40;99.90;;;11.63;56.12;98761.50;4961717;28;19933;-84
2024/03/03 01:40:53;;;;;;;;;;;11.40;99.90;;;11.61;55.78;98758.28;4960416;29;19977;-84
2024/03/03 01:43:20;;;;;;;;;;;11.40;99.90;;;11.59;55.80;98749.72;4945006;29;19993;-84
2024/03/03 01:45:47;;;;;;;;;;;11.40;99.90;;;11.63;56.14;98750.03;4912015;29;19977;-84
2024/03/03 01:48:16;;;;;;;;;;;11.40;99.90;;;11.59;55.81;98745.19;4943864;29;19985;-84
2024/03/03 01:50:44;;;;;;;;;;;11.40;99.90;;;11.62;56.04;98756.44;4960469;29;19973;-84
2024/03/03 01:53:14;;;;;;;;;;;11.40;99.90;;;11.61;56.30;98752.94;4944502;29;20367;-84
2024/03/03 01:55:43;;;;;;;;;;;11.40;99.90;;;11.58;56.03;98756.13;4961631;29;19962;-84
2024/03/03 01:58:13;;;;;;;;;;;11.40;99.90;;;11.60;56.38;98759.34;4944657;29;19926;-84
2024/03/03 02:00:45;;;;;;;;;;;11.40;99.90;;;11.62;56.18;98757.22;4961731;29;19930;-84
2024/03/03 02:03:13;;;;;;;;;;;11.40;99.90;;;11.64;56.34;98752.41;4943326;29;19927;-85
2024/03/03 02:05:40;;;;;;;;;;;11.40;99.90;;;11.62;56.62;98748.41;4943619;29;19934;-84
2024/03/03 02:08:08;;;;;;;;;;;11.40;99.90;;;11.60;56.43;98744.13;4960535;28;20359;-84
2024/03/03 02:10:36;;;;;;;;;;;11.40;99.90;;;11.60;56.63;98746.00;4943665;29;19926;-84
2024/03/03 02:13:05;;;;;;;;;;;11.40;99.90;;;11.62;56.63;98754.56;4943815;29;19930;-84
2024/03/03 02:15:33;;;;;;;;;;;11.40;99.90;;;11.60;56.70;98752.13;4943649;29;19927;-84
2024/03/03 02:18:00;;;;;;;;;;;11.40;99.90;;;11.61;56.73;98739.56;4960314;28;19926;-84
2024/03/03 02:20:28;;;;;;;;;;;11.40;99.90;;;11.58;56.92;98748.13;4943303;29;19935;-84
2024/03/03 02:23:00;;;;;;;;;;;11.40;99.90;;;11.59;56.96;98737.19;4943782;29;19950;-84
2024/03/03 02:25:27;;;;;;;;;;;11.40;99.90;;;11.56;57.08;98734.22;4942993;29;19926;-84
2024/03/03 02:27:55;;;;;;;;;;;11.40;99.90;;;11.57;57.16;98738.50;4927660;29;19926;-84
2024/03/03 02:30:25;;;;;;;;;;;11.40;99.90;;;11.59;57.24;98733.72;4927498;29;19980;-84
2024/03/03 02:32:52;;;;;;;;;;;11.50;99.90;;;11.60;57.44;98737.97;4927671;29;20017;-84
2024/03/03 02:35:19;;;;;;;;;;;11.50;99.90;;;11.60;57.14;98736.09;4966659;28;19927;-84
2024/03/03 02:37:47;;;;;;;;;;;11.50;99.90;;;11.63;57.39;98740.13;4949858;28;19926;-84
2024/03/03 02:40:16;;;;;;;;;;;11.40;99.90;;;11.59;57.62;98734.50;4966469;28;19954;-84
2024/03/03 02:42:46;;;;;;;;;;;11.40;99.90;;;11.60;57.59;98733.44;4949914;29;19926;-84
2024/03/03 02:45:13;;;;;;;;;;;11.40;99.90;;;11.61;57.39;98734.25;4965889;28;20365;-84
2024/03/03 02:47:41;;;;;;;;;;;11.40;99.90;;;11.64;57.51;98736.41;4933055;29;20411;-84
2024/03/03 02:50:09;;;;;;;;;;;11.40;99.90;;;11.66;57.60;98736.94;4949415;29;19986;-84
2024/03/03 02:52:36;;;;;;;;;;;11.40;99.90;;;11.66;57.54;98746.81;4965115;28;19973;-84
2024/03/03 02:55:05;;;;;;;;;;;11.40;99.90;;;11.67;57.73;98741.22;4966018;28;19981;-85
2024/03/03 02:57:33;;;;;;;;;;;11.40;99.90;;;11.68;57.96;98753.50;4949052;28;19926;-85
2024/03/03 03:00:01;;;;;;;;;;;11.40;99.90;;;11.68;57.82;98763.38;4932836;29;19926;-85
2024/03/03 03:02:29;;;;;;;;;;;11.40;99.90;;;11.62;57.65;98767.09;4948743;29;20021;-84
2024/03/03 03:04:58;;;;;;;;;;;11.40;99.90;;;11.59;57.94;98765.75;4949291;29;20408;-85
2024/03/03 03:07:25;;;;;;;;;;;11.30;99.90;;;11.57;57.94;98762.53;4949168;29;19934;-85
2024/03/03 03:09:52;;;;;;;;;;;11.30;99.90;;;11.59;58.11;98771.09;4965322;28;20351;-85
2024/03/03 03:12:20;;;;;;;;;;;11.40;99.90;;;11.59;58.17;98763.06;4966386;28;19926;-85
2024/03/03 03:14:48;;;;;;;;;;;11.30;99.90;;;11.57;58.32;98758.00;4948740;29;19926;-85
2024/03/03 03:17:15;;;;;;;;;;;11.30;99.90;;;11.49;58.29;98747.00;4966287;28;19978;-85
2024/03/03 03:19:45;;;;;;;;;;;11.30;99.90;;;11.49;58.26;98750.47;4949007;29;19926;-85
2024/03/03 03:22:13;;;;;;;;;;;11.20;99.90;;;11.50;58.11;98745.94;4964499;28;19942;-85
2024/03/03 03:24:41;;;;;;;;;;;11.20;99.90;;;11.48;58.14;98743.53;4948840;29;19927;-85
2024/03/03 03:27:08;;;;;;;;;;;11.20;99.90;;;11.52;58.20;98743.84;4966612;28;20380;-85
2024/03/03 03:29:35;;;;;;;;;;;11.20;99.90;;;11.50;58.17;98737.94;4948906;29;19927;-85
2024/03/03 03:32:04;;;;;;;;;;;11.20;99.90;;;11.49;58.30;98739.00;4948802;29;19934;-84
2024/03/03 03:34:33;;;;;;;;;;;11.20;99.90;;;11.50;58.68;98729.94;4949042;29;20336;-85
2024/03/03 03:37:01;;;;;;;;;;;11.20;99.90;;;11.50;58.77;98732.59;4949639;28;20374;-85
2024/03/03 03:39:28;;;;;;;;;;;11.20;99.90;;;11.49;58.68;98725.66;4948683;29;19926;-84
2024/03/03 03:41:56;;;;;;;;;;;11.20;99.90;;;11.48;58.67;98722.19;4966072;28;20005;-85
2024/03/03 03:44:24;;;;;;;;;;;11.20;99.90;;;11.51;58.59;98726.19;4966748;28;19927;-85
2024/03/03 03:46:51;;;;;;;;;;;11.20;99.90;;;11.51;58.89;98726.19;4942120;29;19927;-85
2024/03/03 03:49:22;;;;;;;;;;;11.20;99.90;;;11.50;58.54;98717.38;4944563;29;19963;-84
2024/03/03 03:51:49;;;;;;;;;;;11.20;99.90;;;11.51;58.58;98716.31;4942688;29;19930;-85
2024/03/03 03:54:17;;;;;;;;;;;11.20;99.90;;;11.51;58.47;98705.63;4958955;28;19949;-85
2024/03/03 03:56:44;;;;;;;;;;;11.20;99.90;;;11.51;58.57;98726.19;4944264;29;19927;-85
2024/03/03 03:59:12;;;;;;;;;;;11.10;99.90;;;11.49;58.47;98728.31;4942469;29;20304;-85
2024/03/03 04:01:39;;;;;;;;;;;11.10;99.90;;;11.47;58.58;98731.25;4926871;29;19931;-85
2024/03/03 04:04:06;;;;;;;;;;;11.10;99.90;;;11.45;58.79;98732.56;4942791;29;19927;-85
2024/03/03 04:06:35;;;;;;;;;;;11.10;99.90;;;11.48;58.90;98734.72;4942604;29;20371;-85
2024/03/03 04:09:04;;;;;;;;;;;11.10;99.90;;;11.46;58.92;98731.50;4942820;29;19926;-85
2024/03/03 04:11:31;;;;;;;;;;;11.10;99.90;;;11.41;59.04;98736.81;4942691;29;19927;-85
2024/03/03 04:13:58;;;;;;;;;;;11.00;99.90;;;11.39;59.26;98754.97;4943607;29;19971;-84
2024/03/03 04:16:26;;;;;;;;;;;10.90;99.90;;;11.35;59.23;98755.47;4942424;29;19950;-85
2024/03/03 04:18:53;;;;;;;;;;;10.90;99.90;;;11.32;59.24;98753.34;4942809;29;20423;-84
2024/03/03 04:21:25;;;;;;;;;;;10.90;99.90;;;11.31;59.32;98754.38;4942464;29;20301;-84
2024/03/03 04:23:54;;;;;;;;;;;11.10;99.90;;;11.30;59.13;98758.13;4943799;29;19926;-85
2024/03/03 04:26:22;;;;;;;;;;;10.90;99.90;;;11.31;59.49;98773.06;4942175;29;19927;-85
2024/03/03 04:28:49;;;;;;;;;;;10.90;99.90;;;11.30;59.36;98773.31;4942619;29;19930;-84
2024/03/03 04:31:16;;;;;;;;;;;10.90;99.90;;;11.29;59.55;98772.53;4925806;29;20388;-84
2024/03/03 04:33:44;;;;;;;;;;;10.90;99.90;;;11.28;59.74;98778.13;4942006;29;19930;-85
2024/03/03 04:36:12;;;;;;;;;;;10.80;99.90;;;11.27;59.62;98768.50;4943652;29;19950;-85
2024/03/03 04:38:40;;;;;;;;;;;10.80;99.90;;;11.25;59.66;98773.28;4942662;29;19934;-85
2024/03/03 04:41:15;;;;;;;;;;;10.80;99.90;;;11.22;59.72;98781.81;4943647;29;19927;-84
2024/03/03 04:43:43;;;;;;;;;;;10.80;99.90;;;11.18;59.81;98775.41;4943388;29;20427;-84
2024/03/03 04:46:11;;;;;;;;;;;10.70;99.90;;;11.13;59.86;98776.16;4941163;29;19927;-84
2024/03/03 04:48:38;;;;;;;;;;;10.60;99.90;;;11.11;60.03;98772.13;4940957;29;20380;-84
2024/03/03 04:51:07;;;;;;;;;;;10.70;99.90;;;11.05;60.26;98777.44;4942379;29;20320;-84
2024/03/03 04:53:37;;;;;;;;;;;10.60;99.90;;;11.02;60.39;98782.47;4957228;29;19927;-84
2024/03/03 04:56:05;;;;;;;;;;;10.60;99.90;;;11.01;60.40;98786.19;4942006;29;19934;-84
2024/03/03 04:58:34;;;;;;;;;;;10.60;99.90;;;11.04;60.46;98780.38;4940530;29;19950;-84
2024/03/03 05:01:01;;;;;;;;;;;10.60;99.90;;;11.06;60.67;98783.56;4941311;29;19927;-84
2024/03/03 05:03:31;;;;;;;;;;;10.60;99.90;;;11.04;60.64;98788.38;4942324;29;19926;-84
2024/03/03 05:05:58;;;;;;;;;;;10.60;99.90;;;10.98;60.63;98789.38;4905799;29;19974;-84
2024/03/03 05:08:26;;;;;;;;;;;10.60;99.90;;;10.95;60.94;98793.38;4941542;29;19931;-84
2024/03/03 05:10:53;;;;;;;;;;;10.50;99.90;;;10.92;61.06;98793.88;4924623;29;19931;-84
2024/03/03 05:13:20;;;;;;;;;;;10.50;99.90;;;10.93;60.93;98800.00;4942664;29;19927;-84
2024/03/03 05:15:49;;;;;;;;;;;10.50;99.90;;;10.88;61.16;98797.28;4942404;29;20406;-84
2024/03/03 05:18:18;;;;;;;;;;;10.40;99.90;;;10.88;61.59;98797.28;4942505;29;19927;-84
2024/03/03 05:20:46;;;;;;;;;;;10.40;99.90;;;10.87;61.45;98793.03;4942309;29;19933;-84
2024/03/03 05:23:13;;;;;;;;;;;10.40;99.90;;;10.85;61.41;98797.81;4942160;29;19927;-84
2024/03/03 05:25:40;;;;;;;;;;;10.40;99.90;;;10.83;61.29;98796.22;4941354;29;19959;-84
2024/03/03 05:28:08;;;;;;;;;;;10.40;99.90;;;10.78;61.51;98793.50;4941369;29;20372;-84
2024/03/03 05:30:36;;;;;;;;;;;10.40;99.90;;;10.77;61.40;98796.41;4941006;29;19927;-83
2024/03/03 05:33:07;;;;;;;;;;;10.40;99.90;;;10.78;61.36;98814.00;4941255;29;19926;-84
2024/03/03 05:35:34;;;;;;;;;;;10.40;99.90;;;10.80;61.64;98814.56;4941380;29;19927;-84
2024/03/03 05:38:04;;;;;;;;;;;10.40;99.90;;;10.79;61.93;98813.78;4957219;28;19959;-84
2024/03/03 05:40:31;;;;;;;;;;;10.40;99.90;;;10.80;61.83;98823.38;4956581;28;19931;-83
2024/03/03 05:43:00;;;;;;;;;;;10.40;99.90;;;10.73;61.94;98822.75;4941918;29;20021;-84
2024/03/03 05:45:27;;;;;;;;;;;10.40;99.90;;;10.77;62.11;98831.88;4941170;29;20361;-84
2024/03/03 05:47:55;;;;;;;;;;;10.40;99.90;;;10.79;62.12;98829.78;4943054;29;19927;-84
2024/03/03 05:50:26;;;;;;;;;;;10.40;99.90;;;10.79;62.04;98832.44;4957114;28;19933;-84
2024/03/03 05:52:54;;;;;;;;;;;10.40;99.90;;;10.80;62.09;98838.56;4942092;29;19969;-84
2024/03/03 05:55:21;;;;;;;;;;;10.40;99.90;;;10.78;62.13;98841.50;4940404;29;19927;-84
2024/03/03 05:57:48;;;;;;;;;;;10.40;99.90;;;10.77;62.21;98845.19;4925029;29;19973;-84
2024/03/03 06:00:18;;;;;;;;;;;10.40;99.90;;;10.76;62.13;98853.47;4940505;29;19982;-84
2024/03/03 06:02:49;;;;;;;;;;;10.30;99.90;;;10.73;62.24;98854.75;4942918;29;19927;-84
2024/03/03 06:05:18;;;;;;;;;;;10.30;99.90;;;10.73;62.15;98846.75;4940747;29;19927;-84
2024/03/03 06:07:47;;;;;;;;;;;10.30;99.90;;;10.71;62.35;98846.22;4941117;29;19930;-84
2024/03/03 06:10:14;;;;;;;;;;;10.30;99.90;;;10.69;62.49;98845.69;4941722;29;20010;-84
2024/03/03 06:12:41;;;;;;;;;;;10.30;99.90;;;10.67;62.67;98846.97;4927769;29;19998;-84
2024/03/03 06:15:09;;;;;;;;;;;10.20;99.90;;;10.66;62.70;98856.84;4942478;29;19973;-84
2024/03/03 06:17:41;;;;;;;;;;;10.20;99.90;;;10.66;62.95;98858.69;4942137;29;20388;-83
2024/03/03 06:20:10;;;;;;;;;;;10.20;99.90;;;10.63;62.99;98854.66;4925847;29;19994;-84
2024/03/03 06:22:38;;;;;;;;;;;10.20;99.90;;;10.63;62.86;98862.66;4940191;29;20356;-84
2024/03/03 06:25:08;;;;;;;;;;;10.20;99.90;;;10.64;62.80;98858.13;4940075;29;20018;-84
2024/03/03 06:27:35;;;;;;;;;;;10.20;99.90;;;10.63;62.90;98857.31;4956353;28;19927;-84
2024/03/03 06:30:03;;;;;;;;;;;10.20;99.90;;;10.62;62.74;98853.06;4942087;29;20064;-84
2024/03/03 06:32:31;;;;;;;;;;;10.20;99.90;;;10.59;62.88;98853.56;4941308;29;19973;-85
2024/03/03 06:34:59;;;;;;;;;;;10.20;99.90;;;10.58;63.03;98866.06;4940342;29;19933;-84
2024/03/03 06:37:27;;;;;;;;;;;10.20;99.90;;;10.54;63.29;98866.81;4940064;29;20386;-84
2024/03/03 06:39:54;;;;;;;;;;;10.20;99.90;;;10.57;63.00;98871.66;4940703;29;19978;-83
2024/03/03 06:42:23;;;;;;;;;;;10.20;99.90;;;10.55;63.09;98865.78;4940829;29;19931;-83
2024/03/03 06:44:50;;;;;;;;;;;10.20;99.90;;;10.54;63.35;98872.97;4906871;29;19927;-83
2024/03/03 06:47:17;;;;;;;;;;;10.20;99.90;;;10.53;63.36;98881.22;4938741;29;19934;-82
2024/03/03 06:49:44;;;;;;;;;;;10.20;99.90;;;10.53;63.48;98875.88;4940819;29;19980;-83
2024/03/03 06:52:12;;;;;;;;;;;10.20;99.90;;;10.56;63.39;98864.72;4939744;29;19955;-83
2024/03/03 06:54:41;;;;;;;;;;;10.20;99.90;;;10.58;63.49;98867.94;4938155;29;19933;-83
2024/03/03 06:57:08;;;;;;;;;;;10.20;99.90;;;10.59;63.51;98869.56;4921721;29;19927;-83
2024/03/03 06:59:38;;;;;;;;;;;10.20;99.90;;;10.59;63.90;98874.91;4939793;29;19933;-83
2024/03/03 07:02:06;;;;;;;;;;;10.20;99.90;;;10.60;63.88;98871.19;4938184;29;19927;-84
2024/03/03 07:04:34;;;;;;;;;;;10.20;99.90;;;10.61;64.04;98859.44;4938231;29;20017;-84
2024/03/03 07:07:02;;;;;;;;;;;10.20;99.90;;;10.63;64.07;98854.66;4937096;29;19930;-83
2024/03/03 07:09:29;;;;;;;;;;;10.30;99.90;;;10.65;64.17;98851.75;4937496;29;19927;-84
2024/03/03 07:11:57;;;;;;;;;;;10.30;99.90;;;10.69;63.78;98858.22;4937555;29;19941;-84
2024/03/03 07:14:26;;;;;;;;;;;10.30;99.90;;;10.72;63.43;98858.50;4940368;29;19930;-84
2024/03/03 07:16:55;;;;;;;;;;;10.40;99.90;;;10.71;64.08;98861.41;4907452;29;20359;-84
2024/03/03 07:19:22;;;;;;;;;;;10.40;99.90;;;10.68;64.28;98860.03;4939225;29;19934;-84
2024/03/03 07:21:50;;;;;;;;;;;10.30;99.90;;;10.67;64.41;98857.63;4940755;29;19927;-85
2024/03/03 07:24:17;;;;;;;;;;;10.30;99.90;;;10.69;63.77;98860.88;4940632;29;20281;-86
2024/03/03 07:26:45;;;;;;;;;;;10.40;99.90;;;10.70;63.91;98860.63;4940895;29;19998;-86
2024/03/03 07:29:12;;;;;;;;;;;10.40;99.90;;;10.71;64.28;98861.41;4940701;29;20400;-86
2024/03/03 07:31:40;;;;;;;;;;;10.40;99.90;;;10.75;64.32;98852.66;4941167;29;19993;-86
2024/03/03 07:34:08;;;;;;;;;;;10.40;99.90;;;10.79;64.23;98858.31;4941416;29;19981;-86
2024/03/03 07:36:36;;;;;;;;;;;10.50;99.90;;;10.82;64.20;98863.91;4941125;29;19927;-85
2024/03/03 07:39:06;;;;;;;;;;;10.50;99.90;;;10.86;64.04;98869.56;4943072;29;19927;-86
2024/03/03 07:41:33;;;;;;;;;;;10.50;99.90;;;10.89;63.94;98871.72;4944042;29;19927;-86
2024/03/03 07:44:01;;;;;;;;;;;10.60;99.90;;;10.91;63.68;98863.47;4942326;29;20021;-86
2024/03/03 07:46:29;;;;;;;;;;;10.60;99.90;;;10.91;63.89;98871.47;4925889;29;19985;-85
2024/03/03 07:48:56;;;;;;;;;;;10.60;99.90;;;10.94;63.63;98881.66;4944340;29;19933;-84
2024/03/03 07:51:30;;;;;;;;;;;10.60;99.90;;;10.88;63.47;98882.63;4955973;29;20407;-84
2024/03/03 07:53:59;;;;;;;;;;;10.60;99.90;;;10.87;63.93;98891.69;4909364;29;19927;-84
2024/03/03 07:56:26;;;;;;;;;;;10.60;99.90;;;10.90;64.21;98888.53;4946109;29;19981;-84
2024/03/03 07:59:02;;;;;;;;;;;10.60;99.90;;;10.95;63.87;98892.06;4938056;29;20312;-85
2024/03/03 08:01:33;;;;;;;;;;;10.70;99.90;;;10.99;63.75;98893.16;4940766;29;20025;-86
2024/03/03 08:04:01;;;;;;;;;;;10.70;99.90;;;11.03;63.57;98893.47;4940579;29;19983;-86
2024/03/03 08:06:29;;;;;;;;;;;10.70;99.90;;;11.02;63.57;98884.63;4955854;29;19978;-85
2024/03/03 08:08:56;;;;;;;;;;;10.80;99.90;;;11.07;63.59;98886.53;4932437;29;19931;-86
2024/03/03 08:11:24;;;;;;;;;;;10.80;99.90;;;11.07;63.48;98894.56;4952594;29;20021;-86
2024/03/03 08:13:51;;;;;;;;;;;10.80;99.90;;;11.08;63.86;98888.97;4957271;28;19934;-85
2024/03/03 08:16:19;;;;;;;;;;;10.80;99.90;;;11.11;63.99;98882.31;4924345;29;19935;-85
2024/03/03 08:18:46;;;;;;;;;;;10.90;99.90;;;11.15;63.34;98877.28;4934490;29;19960;-81
2024/03/03 08:21:13;;;;;;;;;;;10.90;99.90;;;11.18;63.44;98890.94;4925268;29;19997;-81
2024/03/03 08:23:43;;;;;;;;;;;10.90;99.90;;;11.18;63.32;98887.47;4923692;29;19927;-81
2024/03/03 08:26:11;;;;;;;;;;;11.00;99.90;;;11.18;63.26;98893.59;4924632;29;19931;-81
2024/03/03 08:28:39;;;;;;;;;;;11.00;99.90;;;11.21;63.15;98887.75;4926984;29;19937;-80
2024/03/03 08:31:07;;;;;;;;;;;11.00;99.90;;;11.24;62.93;98881.09;4959357;29;20277;-81
2024/03/03 08:33:37;;;;;;;;;;;11.10;99.90;;;11.25;63.03;98872.84;4942795;29;19933;-81
2024/03/03 08:36:05;;;;;;;;;;;11.10;99.90;;;11.28;62.67;98883.00;4958624;29;20316;-81
2024/03/03 08:38:34;;;;;;;;;;;11.10;99.90;;;11.30;62.80;98882.75;4939355;29;19931;-81
2024/03/03 08:41:03;;;;;;;;;;;11.20;99.90;;;11.34;62.89;98879.31;4925195;29;19966;-81
2024/03/03 08:43:31;;;;;;;;;;;11.20;99.90;;;11.38;62.61;98879.63;4925548;29;20396;-81
2024/03/03 08:45:59;;;;;;;;;;;11.20;99.90;;;11.44;62.72;98891.94;4929695;29;20325;-81
2024/03/03 08:48:26;;;;;;;;;;;11.30;99.90;;;11.50;62.44;98895.44;4925636;29;19983;-81
2024/03/03 08:50:54;;;;;;;;;;;11.40;99.90;;;11.56;62.36;98905.91;4943733;29;19927;-81
2024/03/03 08:53:22;;;;;;;;;;;11.50;99.90;;;11.63;62.31;98899.56;4943757;29;19927;-81
2024/03/03 08:55:52;;;;;;;;;;;11.60;99.90;;;11.67;61.97;98901.44;4944095;29;20030;-81
2024/03/03 08:58:21;;;;;;;;;;;11.70;99.90;;;11.73;62.26;98897.75;4943783;29;19966;-81
2024/03/03 09:00:49;;;;;;;;;;;11.70;99.90;;;11.77;61.89;98893.50;4943491;29;20388;-81
2024/03/03 09:03:16;;;;;;;;;;;11.80;99.90;;;11.78;61.61;98896.97;4942677;29;19926;-81
2024/03/03 09:05:46;;;;;;;;;;;11.80;99.90;;;11.83;61.59;98895.16;4926383;29;19952;-81
2024/03/03 09:08:14;;;;;;;;;;;11.80;99.90;;;11.89;61.23;98895.19;4927433;29;19951;-81
2024/03/03 09:10:41;;;;;;;;;;;11.90;99.90;;;11.93;61.50;98902.44;4926975;29;20404;-81
2024/03/03 09:13:08;;;;;;;;;;;11.90;99.90;;;11.93;60.95;98893.63;4926475;29;20439;-81
2024/03/03 09:15:38;;;;;;;;;;;12.00;99.90;;;11.94;60.94;98885.34;4909682;29;19927;-81
2024/03/03 09:18:05;;;;;;;;;;;11.90;99.90;;;11.98;60.99;98891.78;4908340;29;19927;-81
2024/03/03 09:20:33;;;;;;;;;;;12.00;99.90;;;12.00;60.87;98889.63;4924052;29;19935;-81
2024/03/03 09:23:00;;;;;;;;;;;12.10;99.90;;;12.05;60.61;98883.53;4942639;29;19927;-81
2024/03/03 09:25:27;;;;;;;;;;;12.10;99.90;;;12.08;60.56;98886.47;4942565;29;19934;-82
2024/03/03 09:27:55;;;;;;;;;;;12.10;99.90;;;12.11;60.68;98879.84;4940146;29;19951;-81
2024/03/03 09:30:26;;;;;;;;;;;12.20;99.90;;;12.19;60.85;98879.31;4942405;29;19954;-81
2024/03/03 09:32:54;;;;;;;;;;;12.30;99.90;;;12.25;60.71;98883.63;4924512;29;19931;-81
2024/03/03 09:35:22;;;;;;;;;;;12.30;99.90;;;12.29;60.37;98879.34;4924338;29;19934;-85
2024/03/03 09:37:50;;;;;;;;;;;12.30;99.90;;;12.29;60.52;98887.38;4941575;29;20368;-86
2024/03/03 09:40:19;;;;;;;;;;;12.40;99.90;;;12.32;59.75;98883.38;4921413;29;20308;-85
2024/03/03 09:42:49;;;;;;;;;;;12.40;99.90;;;12.33;60.13;98896.47;4940812;29;19927;-82
2024/03/03 09:45:20;;;;;;;;;;;12.40;99.90;;;12.34;60.54;98890.06;4940272;29;19927;-82
2024/03/03 09:47:48;;;;;;;;;;;12.40;99.90;;;12.40;60.72;98893.59;4922941;29;20018;-84
2024/03/03 09:50:17;;;;;;;;;;;12.50;99.90;;;12.43;60.45;98894.91;4939079;29;19927;-83
2024/03/03 09:52:47;;;;;;;;;;;12.50;99.90;;;12.48;60.99;98893.06;4925409;29;19931;-83
2024/03/03 09:55:15;;;;;;;;;;;12.60;99.90;;;12.45;60.02;98901.63;4924508;29;20318;-83
2024/03/03 09:57:42;;;;;;;;;;;12.60;99.90;;;12.46;59.66;98891.72;4942838;29;19927;-82
2024/03/03 10:00:11;;;;;;;;;;;12.60;99.90;;;12.47;59.76;98893.34;4925390;29;19933;-83
2024/03/03 10:02:42;;;;;;;;;;;12.50;99.90;;;12.51;58.99;98897.09;4925090;29;19963;-83
2024/03/03 10:05:10;;;;;;;;;;;12.60;99.90;;;12.53;58.74;98897.63;4943263;29;19933;-83
2024/03/03 10:07:43;;;;;;;;;;;12.60;99.90;;;12.56;58.86;98894.44;4925633;29;19970;-83
2024/03/03 10:10:10;;;;;;;;;;;12.60;99.90;;;12.57;58.95;98902.19;4942097;29;20396;-83
2024/03/03 10:12:38;;;;;;;;;;;12.60;99.90;;;12.61;59.35;98905.16;4925067;29;19979;-83
2024/03/03 10:15:08;;;;;;;;;;;12.70;99.90;;;12.63;59.31;98901.13;4909684;29;19978;-83
2024/03/03 10:17:35;;;;;;;;;;;12.70;99.90;;;12.69;59.43;98890.44;4925923;29;19930;-83
2024/03/03 10:20:06;;;;;;;;;;;12.70;99.90;;;12.72;58.64;98895.28;4942711;29;19933;-83
2024/03/03 10:22:33;;;;;;;;;;;12.80;99.90;;;12.75;58.35;98873.34;4942436;29;19934;-83
2024/03/03 10:25:21;;;;;;;;;;;12.80;99.90;;;12.81;57.50;98883.78;4925039;29;20319;-83
2024/03/03 10:27:50;;;;;;;;;;;12.90;99.90;;;12.88;57.80;98879.00;4942376;29;20327;-82
2024/03/03 10:30:20;;;;;;;;;;;13.00;99.90;;;12.93;58.09;98875.50;4924582;29;19934;-83
2024/03/03 10:32:48;;;;;;;;;;;13.10;99.90;;;12.96;57.73;98874.97;4943052;29;19962;-83
2024/03/03 10:35:18;;;;;;;;;;;13.10;99.90;;;12.98;57.66;98875.53;4927374;29;19951;-83
2024/03/03 10:37:52;;;;;;;;;;;13.10;99.90;;;13.07;58.37;98870.44;4931135;29;19931;-83
2024/03/03 10:40:22;;;;;;;;;;;13.20;99.90;;;13.14;57.83;98871.78;4912116;29;20026;-83
2024/03/03 10:42:49;;;;;;;;;;;13.30;99.90;;;13.21;57.57;98860.81;4924448;29;19934;-83
2024/03/03 10:45:16;;;;;;;;;;;13.40;99.90;;;13.26;57.15;98868.88;4908330;29;20360;-82
2024/03/03 10:47:44;;;;;;;;;;;13.40;99.90;;;13.27;57.37;98870.47;4960186;28;20428;-83
2024/03/03 10:50:16;;;;;;;;;;;13.40;99.90;;;13.29;56.63;98865.66;4943021;29;19933;-83
2024/03/03 10:52:43;;;;;;;;;;;13.50;99.90;;;13.33;56.83;98866.75;4960864;29;19927;-83
2024/03/03 10:55:13;;;;;;;;;;;13.50;99.90;;;13.34;56.23;98860.31;4962601;28;20010;-83
2024/03/03 10:57:42;;;;;;;;;;;13.50;99.90;;;13.38;55.64;98861.38;4947468;29;19926;-82
2024/03/03 11:00:22;;;;;;;;;;;13.50;99.90;;;13.38;55.87;98860.59;4947185;29;19953;-83
2024/03/03 11:02:51;;;;;;;;;;;13.50;99.90;;;13.37;56.04;98846.41;4964050;29;19926;-82
2024/03/03 11:05:19;;;;;;;;;;;13.50;99.90;;;13.40;55.74;98847.72;4946229;29;19933;-83
2024/03/03 11:07:46;;;;;;;;;;;13.60;99.90;;;13.44;56.42;98845.31;4963510;29;19926;-83
2024/03/03 11:10:14;;;;;;;;;;;13.60;99.90;;;13.47;55.96;98842.06;4946399;29;19958;-83
2024/03/03 11:12:45;;;;;;;;;;;13.60;99.90;;;13.52;56.74;98852.81;4961691;28;19930;-83
2024/03/03 11:15:17;;;;;;;;;;;13.70;99.90;;;13.54;55.71;98840.75;4963991;29;19927;-83
2024/03/03 11:17:47;;;;;;;;;;;13.70;99.90;;;13.61;56.40;98837.75;4946937;29;19981;-83
2024/03/03 11:20:18;;;;;;;;;;;13.80;99.90;;;13.68;55.88;98832.94;4964241;28;19973;-83
2024/03/03 11:22:52;;;;;;;;;;;13.90;99.90;;;13.73;56.35;98840.97;4964455;28;19934;-83